createdAt,value
2017-01-27T00:00:38.373Z,29.19
2017-01-27T00:01:18.967Z,29.09
2017-01-27T00:01:59.552Z,29.17
2017-01-27T00:02:40.162Z,28.99
2017-01-27T00:03:20.751Z,29.08
2017-01-27T00:04:01.339Z,29.09
2017-01-27T00:04:41.928Z,29.09
2017-01-27T00:05:22.508Z,29.09
2017-01-27T00:06:03.090Z,29.09
2017-01-27T00:06:43.687Z,28.99
2017-01-27T00:07:24.272Z,29.19
2017-01-27T00:08:04.849Z,29.17
2017-01-27T00:08:45.447Z,29.09
2017-01-27T00:09:26.036Z,29.09
2017-01-27T00:10:06.626Z,29.19
2017-01-27T00:10:47.211Z,29.19
2017-01-27T00:11:27.799Z,28.89
2017-01-27T00:12:08.399Z,29.08
2017-01-27T00:12:48.982Z,29.08
2017-01-27T00:13:29.573Z,29.08
2017-01-27T00:14:10.163Z,29.09
2017-01-27T00:14:50.745Z,29.08
2017-01-27T00:15:31.334Z,29.17
2017-01-27T00:16:11.916Z,28.98
2017-01-27T00:16:52.516Z,29.17
2017-01-27T00:17:33.118Z,29.09
2017-01-27T00:18:13.707Z,29.09
2017-01-27T00:18:54.288Z,28.99
2017-01-27T00:19:34.883Z,28.99
2017-01-27T00:20:15.482Z,28.99
2017-01-27T00:20:56.067Z,28.98
2017-01-27T00:21:36.662Z,28.98
2017-01-27T00:22:17.252Z,28.98
2017-01-27T00:22:57.834Z,29.19
2017-01-27T00:23:38.419Z,28.98
2017-01-27T00:24:19.002Z,28.98
2017-01-27T00:24:59.594Z,28.98
2017-01-27T00:25:40.228Z,29.19
2017-01-27T00:26:20.802Z,28.99
2017-01-27T00:27:01.399Z,29.19
2017-01-27T00:27:41.989Z,29.27
2017-01-27T00:28:22.574Z,29.19
2017-01-27T00:29:03.160Z,29.08
2017-01-27T00:29:43.745Z,29.17
2017-01-27T00:30:24.337Z,29.19
2017-01-27T00:31:04.914Z,29.17
2017-01-27T00:31:45.503Z,29.38
2017-01-27T00:32:26.096Z,29.17
2017-01-27T00:33:06.693Z,29.08
2017-01-27T00:33:47.265Z,29.08
2017-01-27T00:34:27.859Z,28.99
2017-01-27T00:35:08.450Z,29.09
2017-01-27T00:35:49.037Z,29.19
2017-01-27T00:36:29.617Z,29.17
2017-01-27T00:37:10.206Z,29.08
2017-01-27T00:37:50.809Z,29.19
2017-01-27T00:38:31.390Z,29.09
2017-01-27T00:39:11.973Z,29.28
2017-01-27T00:39:52.568Z,29.27
2017-01-27T00:40:33.177Z,29.36
2017-01-27T00:41:13.754Z,29.27
2017-01-27T00:41:54.332Z,29.38
2017-01-27T00:42:34.937Z,28.98
2017-01-27T00:43:15.514Z,28.98
2017-01-27T00:43:56.098Z,29.17
2017-01-27T00:44:36.683Z,29.27
2017-01-27T00:45:17.267Z,29.27
2017-01-27T00:45:57.856Z,29.17
2017-01-27T00:46:38.430Z,29.27
2017-01-27T00:47:19.023Z,28.98
2017-01-27T00:47:59.614Z,29.46
2017-01-27T00:48:40.195Z,28.98
2017-01-27T00:49:20.786Z,28.98
2017-01-27T00:50:01.373Z,29.08
2017-01-27T00:50:41.936Z,28.98
2017-01-27T00:51:22.513Z,28.98
2017-01-27T00:52:03.095Z,29.27
2017-01-27T00:52:43.679Z,29.17
2017-01-27T00:53:24.277Z,29.36
2017-01-27T00:54:04.869Z,29.08
2017-01-27T00:54:45.450Z,29.46
2017-01-27T00:55:26.033Z,29.08
2017-01-27T00:56:06.622Z,29.36
2017-01-27T00:56:47.204Z,29.27
2017-01-27T00:57:27.796Z,29.09
2017-01-27T00:58:08.373Z,29.08
2017-01-27T00:58:48.970Z,29.36
2017-01-27T00:59:29.563Z,29.46
2017-01-27T01:00:10.150Z,29.27
2017-01-27T01:00:50.731Z,29.27
2017-01-27T01:01:31.313Z,29.36
2017-01-27T01:02:11.897Z,29.27
2017-01-27T01:02:52.510Z,29.36
2017-01-27T01:03:33.107Z,29.27
2017-01-27T01:04:13.703Z,29.46
2017-01-27T01:04:54.291Z,29.27
2017-01-27T01:05:34.874Z,29.46
2017-01-27T01:06:15.483Z,29.36
2017-01-27T01:06:56.066Z,29.46
2017-01-27T01:07:36.661Z,28.98
2017-01-27T01:08:17.240Z,29.17
2017-01-27T01:08:57.825Z,29.36
2017-01-27T01:09:38.431Z,29.08
2017-01-27T01:10:19.021Z,29.08
2017-01-27T01:10:59.613Z,29.19
2017-01-27T01:11:40.194Z,29.27
2017-01-27T01:12:20.783Z,29.27
2017-01-27T01:13:01.392Z,29.27
2017-01-27T01:13:41.958Z,29.36
2017-01-27T01:14:22.549Z,29.36
2017-01-27T01:15:03.133Z,29.46
2017-01-27T01:15:43.715Z,29.36
2017-01-27T01:16:24.288Z,29.36
2017-01-27T01:17:04.876Z,29.56
2017-01-27T01:17:45.454Z,29.56
2017-01-27T01:18:26.037Z,29.46
2017-01-27T01:19:06.624Z,29.46
2017-01-27T01:19:47.209Z,29.46
2017-01-27T01:20:27.795Z,29.36
2017-01-27T01:21:08.401Z,29.36
2017-01-27T01:21:49.011Z,29.08
2017-01-27T01:22:29.606Z,29.17
2017-01-27T01:23:10.205Z,29.46
2017-01-27T01:23:50.834Z,29.27
2017-01-27T01:24:31.403Z,29.46
2017-01-27T01:25:12.013Z,29.36
2017-01-27T01:25:52.616Z,29.36
2017-01-27T01:26:33.216Z,29.56
2017-01-27T01:27:13.814Z,29.27
2017-01-27T01:27:54.399Z,29.36
2017-01-27T01:28:34.994Z,29.56
2017-01-27T01:29:15.607Z,29.46
2017-01-27T01:29:56.201Z,29.27
2017-01-27T01:30:36.781Z,29.46
2017-01-27T01:31:17.354Z,29.46
2017-01-27T01:31:57.941Z,29.17
2017-01-27T01:32:38.531Z,29.56
2017-01-27T01:33:19.116Z,29.46
2017-01-27T01:33:59.693Z,29.36
2017-01-27T01:34:40.274Z,29.46
2017-01-27T01:35:20.862Z,29.46
2017-01-27T01:36:01.452Z,29.56
2017-01-27T01:36:42.053Z,29.46
2017-01-27T01:37:22.653Z,29.46
2017-01-27T01:38:03.236Z,29.46
2017-01-27T01:38:43.829Z,29.36
2017-01-27T01:39:24.407Z,29.56
2017-01-27T01:40:04.995Z,29.46
2017-01-27T01:40:45.585Z,29.46
2017-01-27T01:41:26.176Z,29.46
2017-01-27T01:42:06.784Z,29.46
2017-01-27T01:42:47.371Z,29.46
2017-01-27T01:43:27.965Z,29.56
2017-01-27T01:44:08.537Z,29.36
2017-01-27T01:44:49.115Z,29.36
2017-01-27T01:45:29.695Z,29.36
2017-01-27T01:46:10.277Z,29.36
2017-01-27T01:46:50.860Z,29.36
2017-01-27T01:47:31.444Z,29.36
2017-01-27T01:48:12.900Z,29.46
2017-01-27T01:48:53.504Z,29.56
2017-01-27T01:49:34.090Z,29.36
2017-01-27T01:50:14.681Z,29.36
2017-01-27T01:50:55.265Z,29.46
2017-01-27T01:51:35.850Z,29.36
2017-01-27T01:52:16.465Z,29.46
2017-01-27T01:52:57.043Z,29.46
2017-01-27T01:53:37.633Z,29.66
2017-01-27T01:54:18.214Z,29.56
2017-01-27T01:54:58.795Z,29.56
2017-01-27T01:55:39.385Z,29.46
2017-01-27T01:56:19.982Z,29.56
2017-01-27T01:57:00.564Z,29.46
2017-01-27T01:57:41.148Z,29.56
2017-01-27T01:58:21.736Z,29.56
2017-01-27T01:59:02.340Z,29.46
2017-01-27T01:59:42.915Z,29.46
2017-01-27T02:00:23.502Z,29.56
2017-01-27T02:01:04.094Z,29.56
2017-01-27T02:01:44.686Z,29.56
2017-01-27T02:02:25.287Z,29.56
2017-01-27T02:03:05.895Z,29.56
2017-01-27T02:03:46.483Z,29.56
2017-01-27T02:04:27.087Z,29.46
2017-01-27T02:05:07.682Z,29.46
2017-01-27T02:05:48.272Z,29.56
2017-01-27T02:06:28.873Z,29.56
2017-01-27T02:07:09.453Z,29.46
2017-01-27T02:07:50.060Z,29.66
2017-01-27T02:08:30.649Z,29.56
2017-01-27T02:09:11.234Z,29.66
2017-01-27T02:09:51.820Z,29.66
2017-01-27T02:10:32.417Z,29.56
2017-01-27T02:11:13.005Z,29.56
2017-01-27T02:11:53.590Z,29.56
2017-01-27T02:12:34.178Z,29.56
2017-01-27T02:13:14.754Z,29.56
2017-01-27T02:13:55.333Z,29.66
2017-01-27T02:14:35.926Z,29.56
2017-01-27T02:15:16.498Z,29.66
2017-01-27T02:15:57.086Z,29.66
2017-01-27T02:16:37.667Z,29.66
2017-01-27T02:17:18.251Z,29.75
2017-01-27T02:17:58.846Z,29.66
2017-01-27T02:18:39.435Z,29.66
2017-01-27T02:19:20.030Z,29.56
2017-01-27T02:20:00.639Z,29.56
2017-01-27T02:20:41.234Z,29.56
2017-01-27T02:21:21.831Z,29.66
2017-01-27T02:22:02.438Z,29.56
2017-01-27T02:22:43.041Z,29.56
2017-01-27T02:23:23.631Z,29.56
2017-01-27T02:24:04.224Z,29.66
2017-01-27T02:24:44.806Z,29.66
2017-01-27T02:25:25.391Z,29.66
2017-01-27T02:26:05.978Z,29.46
2017-01-27T02:26:46.552Z,29.75
2017-01-27T02:27:27.152Z,29.56
2017-01-27T02:28:07.754Z,29.46
2017-01-27T02:28:48.334Z,29.66
2017-01-27T02:29:28.924Z,29.75
2017-01-27T02:30:09.509Z,29.66
2017-01-27T02:30:50.097Z,29.56
2017-01-27T02:31:30.687Z,29.56
2017-01-27T02:32:11.273Z,29.56
2017-01-27T02:32:51.880Z,29.66
2017-01-27T02:33:32.467Z,29.46
2017-01-27T02:34:13.068Z,29.46
2017-01-27T02:34:53.674Z,29.36
2017-01-27T02:35:34.260Z,29.66
2017-01-27T02:36:14.874Z,29.56
2017-01-27T02:36:55.463Z,29.36
2017-01-27T02:37:36.089Z,29.75
2017-01-27T02:38:16.691Z,29.46
2017-01-27T02:38:57.282Z,29.46
2017-01-27T02:39:37.883Z,29.56
2017-01-27T02:40:18.492Z,29.66
2017-01-27T02:40:59.083Z,29.66
2017-01-27T02:41:39.659Z,29.36
2017-01-27T02:42:20.248Z,29.46
2017-01-27T02:43:00.850Z,29.46
2017-01-27T02:43:41.438Z,29.56
2017-01-27T02:44:22.045Z,29.56
2017-01-27T02:45:02.615Z,29.66
2017-01-27T02:45:43.238Z,29.46
2017-01-27T02:46:23.826Z,29.46
2017-01-27T02:47:04.415Z,29.56
2017-01-27T02:47:45.002Z,29.66
2017-01-27T02:48:25.595Z,29.66
2017-01-27T02:49:06.211Z,29.46
2017-01-27T02:49:46.827Z,29.46
2017-01-27T02:50:27.386Z,29.46
2017-01-27T02:51:08.016Z,29.46
2017-01-27T02:51:48.613Z,29.36
2017-01-27T02:52:29.211Z,29.56
2017-01-27T02:53:09.828Z,29.56
2017-01-27T02:53:50.413Z,29.56
2017-01-27T02:54:31.012Z,29.36
2017-01-27T02:55:11.590Z,29.46
2017-01-27T02:55:52.172Z,29.56
2017-01-27T02:56:32.765Z,29.56
2017-01-27T02:57:13.353Z,29.46
2017-01-27T02:57:53.939Z,29.56
2017-01-27T02:58:34.527Z,29.56
2017-01-27T02:59:15.127Z,29.56
2017-01-27T02:59:55.702Z,29.36
2017-01-27T03:00:36.291Z,29.46
2017-01-27T03:01:16.881Z,29.46
2017-01-27T03:01:57.486Z,29.66
2017-01-27T03:02:38.069Z,29.36
2017-01-27T03:03:18.654Z,29.46
2017-01-27T03:03:59.241Z,29.36
2017-01-27T03:04:39.842Z,29.56
2017-01-27T03:05:20.417Z,29.56
2017-01-27T03:06:00.999Z,29.27
2017-01-27T03:06:41.578Z,29.27
2017-01-27T03:07:22.184Z,29.46
2017-01-27T03:08:02.775Z,29.56
2017-01-27T03:08:43.368Z,29.56
2017-01-27T03:09:23.958Z,29.36
2017-01-27T03:10:04.545Z,29.46
2017-01-27T03:10:45.126Z,29.46
2017-01-27T03:11:25.712Z,29.56
2017-01-27T03:12:06.305Z,29.46
2017-01-27T03:12:47.414Z,29.66
2017-01-27T03:13:27.997Z,29.46
2017-01-27T03:14:08.580Z,29.46
2017-01-27T03:14:49.176Z,29.56
2017-01-27T03:15:29.752Z,29.46
2017-01-27T03:16:10.341Z,29.36
2017-01-27T03:16:50.928Z,29.36
2017-01-27T03:17:31.531Z,29.46
2017-01-27T03:18:12.121Z,29.46
2017-01-27T03:18:52.720Z,29.56
2017-01-27T03:19:33.311Z,29.56
2017-01-27T03:20:13.878Z,29.46
2017-01-27T03:20:54.466Z,29.46
2017-01-27T03:21:35.051Z,29.56
2017-01-27T03:22:16.492Z,29.56
2017-01-27T03:22:57.078Z,29.56
2017-01-27T03:23:37.660Z,29.46
2017-01-27T03:24:18.246Z,29.46
2017-01-27T03:24:58.838Z,29.46
2017-01-27T03:25:39.421Z,29.56
2017-01-27T03:26:20.024Z,29.36
2017-01-27T03:27:00.601Z,29.46
2017-01-27T03:27:41.200Z,29.56
2017-01-27T03:28:21.783Z,29.27
2017-01-27T03:29:02.356Z,29.36
2017-01-27T03:29:42.946Z,29.27
2017-01-27T03:30:23.534Z,29.46
2017-01-27T03:31:04.113Z,29.17
2017-01-27T03:31:44.700Z,29.56
2017-01-27T03:32:25.274Z,29.27
2017-01-27T03:33:05.870Z,29.27
2017-01-27T03:33:46.462Z,29.36
2017-01-27T03:34:27.054Z,29.17
2017-01-27T03:35:07.646Z,29.27
2017-01-27T03:35:48.230Z,29.27
2017-01-27T03:36:28.825Z,29.27
2017-01-27T03:37:09.427Z,29.36
2017-01-27T03:37:50.007Z,29.46
2017-01-27T03:38:30.588Z,29.36
2017-01-27T03:39:11.173Z,29.46
2017-01-27T03:39:51.767Z,29.46
2017-01-27T03:40:32.362Z,29.46
2017-01-27T03:41:12.949Z,29.27
2017-01-27T03:41:53.536Z,29.46
2017-01-27T03:42:34.115Z,29.46
2017-01-27T03:43:14.723Z,29.46
2017-01-27T03:43:55.290Z,29.56
2017-01-27T03:44:35.879Z,29.27
2017-01-27T03:45:16.488Z,29.46
2017-01-27T03:45:57.079Z,29.46
2017-01-27T03:46:37.675Z,29.36
2017-01-27T03:47:18.257Z,29.36
2017-01-27T03:47:58.845Z,29.46
2017-01-27T03:48:39.425Z,29.36
2017-01-27T03:49:20.018Z,29.46
2017-01-27T03:50:00.602Z,29.66
2017-01-27T03:50:41.178Z,29.46
2017-01-27T03:51:21.760Z,29.46
2017-01-27T03:52:02.373Z,29.56
2017-01-27T03:52:42.953Z,29.45
2017-01-27T03:53:23.546Z,29.36
2017-01-27T03:54:04.123Z,29.46
2017-01-27T03:54:44.715Z,29.36
2017-01-27T03:55:25.321Z,29.56
2017-01-27T03:56:05.920Z,29.46
2017-01-27T03:56:46.518Z,29.56
2017-01-27T03:57:27.099Z,29.64
2017-01-27T03:58:07.703Z,29.46
2017-01-27T03:58:48.284Z,29.56
2017-01-27T03:59:28.873Z,29.66
2017-01-27T04:00:09.484Z,29.66
2017-01-27T04:00:50.076Z,29.46
2017-01-27T04:01:30.702Z,29.66
2017-01-27T04:02:11.300Z,29.66
2017-01-27T04:02:51.864Z,29.66
2017-01-27T04:03:32.445Z,29.66
2017-01-27T04:04:13.032Z,29.64
2017-01-27T04:04:53.622Z,29.66
2017-01-27T04:05:34.211Z,29.66
2017-01-27T04:06:14.788Z,29.56
2017-01-27T04:06:55.376Z,29.55
2017-01-27T04:07:35.955Z,29.56
2017-01-27T04:08:16.548Z,29.56
2017-01-27T04:08:57.151Z,29.64
2017-01-27T04:09:37.752Z,29.66
2017-01-27T04:10:18.342Z,29.64
2017-01-27T04:10:58.956Z,29.46
2017-01-27T04:11:39.555Z,29.55
2017-01-27T04:12:20.168Z,29.75
2017-01-27T04:13:00.743Z,29.83
2017-01-27T04:13:41.329Z,29.75
2017-01-27T04:14:21.920Z,29.75
2017-01-27T04:15:02.521Z,29.64
2017-01-27T04:15:43.129Z,29.94
2017-01-27T04:16:23.719Z,29.83
2017-01-27T04:17:04.330Z,29.94
2017-01-27T04:17:44.939Z,29.64
2017-01-27T04:18:25.513Z,29.35
2017-01-27T04:19:06.098Z,29.85
2017-01-27T04:19:46.682Z,29.83
2017-01-27T04:20:27.280Z,29.75
2017-01-27T04:21:07.882Z,29.85
2017-01-27T04:21:48.468Z,29.83
2017-01-27T04:22:29.071Z,29.75
2017-01-27T04:23:09.652Z,29.83
2017-01-27T04:23:50.227Z,29.55
2017-01-27T04:24:30.810Z,29.75
2017-01-27T04:25:11.433Z,29.94
2017-01-27T04:25:51.983Z,29.56
2017-01-27T04:26:32.566Z,29.36
2017-01-27T04:27:13.160Z,29.74
2017-01-27T04:27:53.739Z,29.46
2017-01-27T04:28:34.319Z,29.74
2017-01-27T04:29:14.895Z,29.66
2017-01-27T04:29:55.488Z,29.93
2017-01-27T04:30:36.075Z,29.83
2017-01-27T04:31:16.662Z,29.46
2017-01-27T04:31:57.244Z,29.75
2017-01-27T04:32:37.825Z,29.45
2017-01-27T04:33:18.423Z,30.03
2017-01-27T04:33:59.026Z,29.74
2017-01-27T04:34:39.610Z,29.83
2017-01-27T04:35:20.201Z,29.93
2017-01-27T04:36:00.792Z,29.93
2017-01-27T04:36:41.371Z,29.85
2017-01-27T04:37:21.951Z,29.74
2017-01-27T04:38:02.552Z,29.93
2017-01-27T04:38:43.133Z,29.74
2017-01-27T04:39:23.711Z,30.12
2017-01-27T04:40:04.291Z,29.46
2017-01-27T04:40:44.881Z,30.12
2017-01-27T04:41:25.469Z,30.12
2017-01-27T04:42:06.060Z,29.85
2017-01-27T04:42:46.640Z,29.83
2017-01-27T04:43:27.219Z,29.66
2017-01-27T04:44:07.818Z,29.93
2017-01-27T04:44:48.409Z,29.45
2017-01-27T04:45:29.007Z,29.55
2017-01-27T04:46:09.599Z,29.56
2017-01-27T04:46:50.202Z,29.74
2017-01-27T04:47:30.800Z,29.75
2017-01-27T04:48:11.384Z,29.74
2017-01-27T04:48:51.968Z,29.56
2017-01-27T04:49:32.555Z,29.64
2017-01-27T04:50:13.148Z,30.12
2017-01-27T04:50:53.728Z,29.93
2017-01-27T04:51:34.310Z,29.56
2017-01-27T04:52:14.923Z,30.03
2017-01-27T04:52:55.501Z,29.64
2017-01-27T04:53:36.092Z,29.64
2017-01-27T04:54:16.691Z,30.14
2017-01-27T04:54:57.269Z,29.94
2017-01-27T04:55:37.848Z,30.14
2017-01-27T04:56:18.436Z,30.04
2017-01-27T04:56:59.021Z,29.75
2017-01-27T04:57:39.598Z,29.45
2017-01-27T04:58:20.192Z,29.85
2017-01-27T04:59:00.776Z,29.83
2017-01-27T04:59:41.359Z,29.74
2017-01-27T05:00:21.957Z,29.66
2017-01-27T05:01:02.542Z,29.93
2017-01-27T05:01:43.147Z,29.74
2017-01-27T05:02:23.742Z,29.56
2017-01-27T05:03:04.332Z,29.93
2017-01-27T05:03:44.943Z,29.85
2017-01-27T05:04:25.527Z,29.45
2017-01-27T05:05:06.111Z,29.93
2017-01-27T05:05:46.702Z,29.64
2017-01-27T05:06:27.281Z,29.75
2017-01-27T05:07:07.861Z,29.83
2017-01-27T05:07:48.469Z,29.94
2017-01-27T05:08:29.053Z,29.75
2017-01-27T05:09:09.635Z,29.55
2017-01-27T05:09:50.230Z,29.55
2017-01-27T05:10:30.815Z,30.03
2017-01-27T05:11:11.393Z,29.93
2017-01-27T05:11:51.972Z,29.83
2017-01-27T05:12:32.568Z,29.74
2017-01-27T05:13:13.145Z,30.04
2017-01-27T05:13:53.741Z,29.93
2017-01-27T05:14:34.316Z,29.74
2017-01-27T05:15:14.917Z,29.85
2017-01-27T05:15:55.519Z,29.75
2017-01-27T05:16:36.108Z,29.74
2017-01-27T05:17:16.695Z,29.74
2017-01-27T05:17:57.273Z,29.66
2017-01-27T05:18:37.848Z,29.83
2017-01-27T05:19:18.438Z,29.74
2017-01-27T05:19:59.024Z,30.14
2017-01-27T05:20:39.605Z,29.64
2017-01-27T05:21:20.197Z,29.74
2017-01-27T05:22:00.777Z,29.64
2017-01-27T05:22:41.353Z,29.74
2017-01-27T05:23:21.951Z,29.74
2017-01-27T05:24:02.554Z,29.64
2017-01-27T05:24:43.146Z,29.74
2017-01-27T05:25:23.743Z,29.74
2017-01-27T05:26:04.338Z,29.64
2017-01-27T05:26:44.930Z,29.74
2017-01-27T05:27:25.523Z,29.75
2017-01-27T05:28:06.111Z,29.74
2017-01-27T05:28:46.701Z,29.64
2017-01-27T05:29:27.273Z,29.64
2017-01-27T05:30:07.865Z,29.74
2017-01-27T05:30:48.474Z,29.74
2017-01-27T05:31:29.065Z,29.93
2017-01-27T05:32:09.665Z,29.93
2017-01-27T05:32:50.252Z,29.55
2017-01-27T05:33:30.842Z,29.93
2017-01-27T05:34:11.435Z,29.74
2017-01-27T05:34:52.053Z,29.83
2017-01-27T05:35:32.636Z,29.83
2017-01-27T05:36:13.226Z,29.64
2017-01-27T05:36:53.812Z,29.64
2017-01-27T05:37:34.405Z,29.74
2017-01-27T05:38:14.990Z,29.64
2017-01-27T05:38:55.581Z,30.03
2017-01-27T05:39:36.192Z,29.55
2017-01-27T05:40:16.785Z,29.93
2017-01-27T05:40:57.392Z,29.83
2017-01-27T05:41:38.015Z,29.85
2017-01-27T05:42:18.606Z,29.93
2017-01-27T05:42:59.227Z,29.83
2017-01-27T05:43:39.862Z,29.74
2017-01-27T05:44:20.454Z,29.83
2017-01-27T05:45:01.068Z,29.83
2017-01-27T05:45:41.656Z,29.93
2017-01-27T05:46:22.272Z,29.83
2017-01-27T05:47:02.866Z,29.83
2017-01-27T05:47:43.445Z,29.83
2017-01-27T05:48:24.029Z,29.93
2017-01-27T05:49:04.650Z,29.94
2017-01-27T05:49:45.195Z,29.74
2017-01-27T05:50:25.778Z,29.83
2017-01-27T05:51:06.365Z,29.74
2017-01-27T05:51:46.954Z,29.93
2017-01-27T05:52:27.537Z,29.74
2017-01-27T05:53:08.136Z,29.83
2017-01-27T05:53:48.723Z,29.74
2017-01-27T05:54:29.313Z,29.74
2017-01-27T05:55:09.906Z,29.83
2017-01-27T05:55:50.487Z,29.83
2017-01-27T05:56:31.083Z,29.85
2017-01-27T05:57:11.662Z,30.03
2017-01-27T05:57:52.247Z,29.83
2017-01-27T05:58:32.849Z,29.74
2017-01-27T05:59:13.430Z,29.74
2017-01-27T05:59:54.007Z,29.74
2017-01-27T06:00:34.610Z,29.74
2017-01-27T06:01:15.211Z,29.74
2017-01-27T06:01:55.808Z,29.74
2017-01-27T06:02:36.394Z,29.74
2017-01-27T06:03:16.972Z,29.74
2017-01-27T06:03:57.565Z,29.85
2017-01-27T06:04:38.173Z,29.83
2017-01-27T06:05:18.770Z,29.66
2017-01-27T06:05:59.372Z,29.64
2017-01-27T06:06:39.946Z,29.74
2017-01-27T06:07:20.525Z,29.74
2017-01-27T06:08:01.126Z,29.64
2017-01-27T06:08:41.697Z,29.83
2017-01-27T06:09:22.281Z,29.64
2017-01-27T06:10:02.864Z,29.83
2017-01-27T06:10:43.455Z,29.83
2017-01-27T06:11:24.050Z,29.74
2017-01-27T06:12:04.636Z,29.74
2017-01-27T06:12:45.225Z,29.83
2017-01-27T06:13:25.794Z,29.83
2017-01-27T06:14:06.391Z,29.74
2017-01-27T06:14:46.978Z,29.83
2017-01-27T06:15:27.567Z,29.83
2017-01-27T06:16:08.151Z,29.64
2017-01-27T06:16:48.749Z,29.83
2017-01-27T06:17:29.338Z,29.74
2017-01-27T06:18:09.932Z,29.64
2017-01-27T06:18:50.522Z,29.74
2017-01-27T06:19:31.115Z,29.83
2017-01-27T06:20:11.707Z,29.83
2017-01-27T06:20:52.285Z,29.55
2017-01-27T06:21:32.893Z,29.74
2017-01-27T06:22:13.492Z,29.83
2017-01-27T06:22:54.073Z,29.64
2017-01-27T06:23:34.667Z,30.12
2017-01-27T06:24:15.252Z,30.12
2017-01-27T06:24:55.829Z,29.64
2017-01-27T06:25:36.461Z,29.74
2017-01-27T06:26:17.044Z,29.74
2017-01-27T06:26:57.645Z,29.64
2017-01-27T06:27:38.236Z,29.74
2017-01-27T06:28:18.808Z,29.64
2017-01-27T06:28:59.377Z,29.83
2017-01-27T06:29:39.971Z,29.64
2017-01-27T06:30:20.557Z,30.12
2017-01-27T06:31:01.153Z,29.83
2017-01-27T06:31:41.741Z,29.74
2017-01-27T06:32:22.321Z,29.64
2017-01-27T06:33:02.923Z,29.83
2017-01-27T06:33:43.509Z,29.74
2017-01-27T06:34:24.105Z,30.03
2017-01-27T06:35:04.714Z,29.83
2017-01-27T06:35:45.295Z,29.74
2017-01-27T06:36:25.887Z,29.74
2017-01-27T06:37:06.468Z,30.12
2017-01-27T06:37:47.056Z,30.12
2017-01-27T06:38:27.651Z,29.74
2017-01-27T06:39:08.248Z,29.83
2017-01-27T06:39:48.829Z,29.83
2017-01-27T06:40:29.435Z,29.83
2017-01-27T06:41:10.028Z,29.83
2017-01-27T06:41:50.608Z,29.64
2017-01-27T06:42:31.215Z,29.55
2017-01-27T06:43:11.805Z,29.74
2017-01-27T06:43:52.384Z,29.74
2017-01-27T06:44:32.976Z,29.64
2017-01-27T06:45:13.591Z,30.12
2017-01-27T06:45:54.186Z,29.93
2017-01-27T06:46:34.773Z,30.12
2017-01-27T06:47:15.375Z,29.55
2017-01-27T06:47:55.964Z,30.12
2017-01-27T06:48:36.546Z,30.03
2017-01-27T06:49:17.158Z,29.64
2017-01-27T06:49:57.764Z,29.74
2017-01-27T06:50:38.361Z,30.03
2017-01-27T06:51:18.959Z,30.03
2017-01-27T06:51:59.556Z,29.74
2017-01-27T06:52:40.146Z,29.74
2017-01-27T06:53:20.742Z,30.03
2017-01-27T06:54:01.338Z,29.93
2017-01-27T06:54:41.930Z,29.83
2017-01-27T06:55:22.501Z,29.83
2017-01-27T06:56:03.083Z,29.93
2017-01-27T06:56:43.668Z,29.83
2017-01-27T06:57:24.256Z,29.93
2017-01-27T06:58:04.861Z,29.93
2017-01-27T06:58:45.443Z,29.64
2017-01-27T06:59:26.028Z,29.74
2017-01-27T07:00:06.604Z,29.83
2017-01-27T07:00:47.195Z,29.83
2017-01-27T07:01:27.789Z,29.93
2017-01-27T07:02:08.370Z,29.83
2017-01-27T07:02:48.973Z,29.93
2017-01-27T07:03:29.562Z,29.93
2017-01-27T07:04:10.168Z,29.83
2017-01-27T07:04:50.762Z,29.93
2017-01-27T07:05:31.324Z,29.93
2017-01-27T07:06:11.905Z,29.93
2017-01-27T07:06:52.489Z,29.93
2017-01-27T07:07:33.074Z,30.03
2017-01-27T07:08:13.651Z,30.12
2017-01-27T07:08:54.253Z,30.22
2017-01-27T07:09:34.853Z,30.22
2017-01-27T07:10:15.433Z,30.32
2017-01-27T07:10:56.028Z,30.22
2017-01-27T07:11:36.606Z,30.32
2017-01-27T07:12:17.206Z,30.32
2017-01-27T07:12:57.808Z,30.12
2017-01-27T07:13:38.418Z,30.12
2017-01-27T07:14:19.003Z,30.41
2017-01-27T07:14:59.614Z,30.41
2017-01-27T07:15:40.221Z,30.32
2017-01-27T07:16:20.814Z,30.32
2017-01-27T07:17:01.400Z,30.32
2017-01-27T07:17:41.990Z,30.51
2017-01-27T07:18:22.586Z,30.12
2017-01-27T07:19:03.188Z,30.12
2017-01-27T07:19:43.784Z,30.22
2017-01-27T07:20:24.358Z,30.22
2017-01-27T07:21:04.954Z,30.12
2017-01-27T07:21:45.547Z,30.22
2017-01-27T07:22:26.188Z,30.7
2017-01-27T07:23:06.768Z,30.32
2017-01-27T07:23:47.353Z,30.32
2017-01-27T07:24:27.953Z,30.51
2017-01-27T07:25:08.544Z,30.32
2017-01-27T07:25:49.123Z,30.32
2017-01-27T07:26:29.720Z,30.32
2017-01-27T07:27:10.300Z,30.51
2017-01-27T07:27:50.921Z,30.51
2017-01-27T07:28:31.510Z,30.72
2017-01-27T07:29:12.118Z,30.43
2017-01-27T07:29:52.730Z,30.72
2017-01-27T07:30:33.330Z,30.43
2017-01-27T07:31:13.926Z,30.62
2017-01-27T07:31:54.522Z,30.24
2017-01-27T07:32:35.124Z,30.62
2017-01-27T07:33:15.715Z,30.33
2017-01-27T07:33:56.305Z,30.63
2017-01-27T07:34:36.888Z,30.15
2017-01-27T07:35:17.471Z,30.44
2017-01-27T07:35:58.051Z,30.54
2017-01-27T07:36:38.644Z,30.63
2017-01-27T07:37:19.253Z,30.44
2017-01-27T07:37:59.861Z,30.35
2017-01-27T07:38:40.462Z,30.44
2017-01-27T07:39:21.046Z,30.54
2017-01-27T07:40:01.642Z,30.15
2017-01-27T07:40:42.225Z,30.15
2017-01-27T07:41:22.820Z,30.35
2017-01-27T07:42:03.411Z,30.54
2017-01-27T07:42:44.003Z,30.35
2017-01-27T07:43:24.610Z,30.35
2017-01-27T07:44:05.218Z,30.93
2017-01-27T07:44:45.804Z,30.46
2017-01-27T07:45:26.393Z,30.46
2017-01-27T07:46:06.981Z,30.75
2017-01-27T07:46:47.599Z,30.55
2017-01-27T07:47:28.188Z,30.46
2017-01-27T07:48:08.774Z,30.55
2017-01-27T07:48:49.371Z,30.55
2017-01-27T07:49:29.964Z,30.36
2017-01-27T07:50:10.574Z,30.36
2017-01-27T07:50:51.159Z,30.36
2017-01-27T07:51:31.756Z,30.27
2017-01-27T07:52:12.368Z,30.57
2017-01-27T07:52:52.983Z,30.17
2017-01-27T07:53:33.581Z,30.18
2017-01-27T07:54:14.194Z,30.28
2017-01-27T07:54:54.806Z,30.17
2017-01-27T07:55:35.429Z,30.08
2017-01-27T07:56:16.015Z,30.08
2017-01-27T07:56:56.646Z,30.28
2017-01-27T07:57:37.260Z,30.28
2017-01-27T07:58:17.861Z,29.99
2017-01-27T07:58:58.459Z,30.08
2017-01-27T07:59:39.062Z,29.9
2017-01-27T08:00:19.661Z,29.9
2017-01-27T08:01:00.258Z,30.18
2017-01-27T08:01:40.874Z,30.08
2017-01-27T08:02:21.489Z,30.28
2017-01-27T08:03:02.074Z,30.08
2017-01-27T08:03:42.684Z,30.28
2017-01-27T08:04:23.275Z,30.18
2017-01-27T08:05:03.900Z,30.08
2017-01-27T08:05:44.481Z,30.28
2017-01-27T08:06:25.068Z,30.47
2017-01-27T08:07:05.684Z,30.57
2017-01-27T08:07:46.280Z,30.47
2017-01-27T08:08:26.881Z,30.57
2017-01-27T08:09:07.489Z,30.47
2017-01-27T08:09:48.090Z,30.38
2017-01-27T08:10:28.681Z,30.38
2017-01-27T08:11:09.289Z,30.57
2017-01-27T08:11:49.874Z,30.39
2017-01-27T08:12:30.464Z,30.38
2017-01-27T08:13:11.052Z,30.2
2017-01-27T08:13:51.641Z,30
2017-01-27T08:14:32.250Z,30.29
2017-01-27T08:15:12.840Z,30.1
2017-01-27T08:15:53.447Z,30
2017-01-27T08:16:34.058Z,29.81
2017-01-27T08:17:14.655Z,30.11
2017-01-27T08:17:55.280Z,29.83
2017-01-27T08:18:35.871Z,29.83
2017-01-27T08:19:16.545Z,29.92
2017-01-27T08:19:57.173Z,30.02
2017-01-27T08:20:37.784Z,29.92
2017-01-27T08:21:18.433Z,30.02
2017-01-27T08:21:59.110Z,29.92
2017-01-27T08:22:39.743Z,29.92
2017-01-27T08:23:20.369Z,30.02
2017-01-27T08:24:00.980Z,29.92
2017-01-27T08:24:41.573Z,29.83
2017-01-27T08:25:22.193Z,30.11
2017-01-27T08:26:02.914Z,30.02
2017-01-27T08:26:43.504Z,30.31
2017-01-27T08:27:24.111Z,30.31
2017-01-27T08:28:04.690Z,30.02
2017-01-27T08:28:45.283Z,30.21
2017-01-27T08:29:25.900Z,30.31
2017-01-27T08:30:06.532Z,30.51
2017-01-27T08:30:47.197Z,30.21
2017-01-27T08:31:27.845Z,30.31
2017-01-27T08:32:08.502Z,30.41
2017-01-27T08:32:49.189Z,30.41
2017-01-27T08:33:29.810Z,30.69
2017-01-27T08:34:10.408Z,30.69
2017-01-27T08:34:51.004Z,30.69
2017-01-27T08:35:31.615Z,30.6
2017-01-27T08:36:12.213Z,30.69
2017-01-27T08:36:52.844Z,30.79
2017-01-27T08:37:33.438Z,30.89
2017-01-27T08:38:14.050Z,31.09
2017-01-27T08:38:54.647Z,31.09
2017-01-27T08:39:35.278Z,31.37
2017-01-27T08:40:15.936Z,31.18
2017-01-27T08:40:56.537Z,31.09
2017-01-27T08:41:37.130Z,31.09
2017-01-27T08:42:17.721Z,30.99
2017-01-27T08:42:58.337Z,30.79
2017-01-27T08:43:38.954Z,30.99